Latest Coastal Weather Observations for Horn Island

IDQ60701

Issued at 6:42 pm EST Saturday 13 August 2022 (issued every 10 minutes, with the page automatically refreshed every 10 minutes)

About coastal observations | Map of coastal stations | Coastal observations for QLD | Marine services | Other Formats
Station Details ID: 027058 Name: HORN ISLAND Lat: -10.58 Lon: 142.29 Height: 4.0 m
Data from the previous 72 hours. | See also: Recent months at Horn Island
Date/Time
EST
Wind Sea
Height
m
Swell Vis
km
Cloud Weather Temp
°C
Press
MSL
hPa
Rain since
9am
mm
Dir  Spd
kts
Gust
kts
Height
m
Period
s
Dir
13/06:30pm SSE 8 11 - - - - 10 Partly cloudy - 25.9 1011.5 0.4
13/06:00pm SE 9 14 - - - - 10 Mostly cloudy - 26.3 1011.2 0.4
13/05:30pm ESE 11 14 - - - - 10 Partly cloudy - 26.7 1011.0 0.4
13/05:00pm ESE 9 14 - - - - 10 Partly cloudy - 26.4 1010.9 0.4
13/04:30pm SE 12 16 - - - - 10 Partly cloudy - 27.7 1010.8 0.4
13/04:00pm ESE 16 22 - - - - 10 Partly cloudy - 27.5 1010.9 0.4
13/03:30pm ESE 15 21 - - - - 10 Partly cloudy - 28.0 1010.9 0.4
13/03:00pm SE 13 20 - - - - 10 Cloudy - 27.9 1011.3 0.4
13/02:30pm SE 15 19 - - - - 10 Partly cloudy - 27.5 1011.6 0.4
13/02:00pm ESE 16 20 - - - - 10 Partly cloudy - 27.5 1012.0 0.4
13/01:30pm ESE 10 15 - - - - 10 Partly cloudy - 26.8 1012.4 0.4
13/01:26pm ESE 9 15 - - - - 10 Partly cloudy - 26.7 1012.5 0.4
13/01:05pm ESE 13 17 - - - - 5 Partly cloudy - 26.0 1012.7 0.4
13/01:00pm ESE 12 17 - - - - 10 Partly cloudy - 26.3 1012.7 0.4
13/12:36pm SE 11 15 - - - - 10 Partly cloudy - 27.4 1013.0 0.4
13/12:30pm SE 11 15 - - - - 10 Partly cloudy - 27.3 1013.0 0.4
13/12:00pm SE 8 12 - - - - 10 Cloudy Recent precip. 26.5 1013.3 0.4
13/11:57am SE 9 12 - - - - 10 Partly cloudy - 25.8 1013.4 0.4
13/11:42am SE 8 11 - - - - 10 Partly cloudy - 25.9 1013.5 0.4
13/11:41am SSE 8 11 - - - - 10 Partly cloudy - 25.5 1013.5 0.4
13/11:30am SE 8 11 - - - - 4 Partly cloudy - 25.5 1013.7 0.4
13/11:20am SSE 9 15 - - - - 5 Partly cloudy - 25.3 1013.9 0.2
13/11:08am S 8 11 - - - - 10 Partly cloudy - 26.1 1013.8 0.2
13/11:00am SSE 7 11 - - - - 10 Partly cloudy - 26.4 1013.8 0.0
13/10:41am SSE 6 8 - - - - 10 Partly cloudy - 25.1 1013.9 0.0
13/10:37am SSE 6 9 - - - - 10 Partly cloudy - 25.1 1013.9 0.0
13/10:30am SSE 9 13 - - - - 4 Partly cloudy - 24.9 1014.0 0.0
13/10:21am SE 10 15 - - - - 5 Partly cloudy - 25.5 1014.2 0.0
13/10:20am SE 10 15 - - - - 6 Partly cloudy - 25.3 1014.2 0.0
13/10:00am SSE 9 13 - - - - 10 Partly cloudy - 26.3 1014.1 0.0
13/09:30am SSE 10 15 - - - - 10 Partly cloudy - 26.0 1014.0 0.0
13/09:00am SSE 9 15 - - - - 10 Mostly cloudy - 26.1 1013.8 0.2
13/08:30am SSE 10 13 - - - - 10 Partly cloudy - 25.3 1013.5 0.2
13/08:00am SSE 10 13 - - - - 10 Partly cloudy - 24.5 1013.2 0.2
13/07:30am SSE 9 14 - - - - 10 Partly cloudy - 24.1 1012.9 0.2
13/07:04am SSE 8 13 - - - - 10 Partly cloudy - 23.7 1012.5 0.2
13/07:00am S 7 10 - - - - 10 Partly cloudy - 23.7 1012.5 0.2
13/06:30am S 8 11 - - - - 10 Partly cloudy - 23.5 1012.2 0.2
13/06:26am S 8 11 - - - - 10 Partly cloudy - 23.6 1012.2 0.2
13/06:04am SSE 8 11 - - - - 5 Partly cloudy - 24.0 1012.2 0.2
13/06:01am SSE 7 11 - - - - 8 Partly cloudy - 24.2 1012.1 0.2
13/06:00am SSE 7 11 - - - - 10 Cloudy - 24.2 1012.1 0.2
13/05:30am SSE 9 11 - - - - 10 Partly cloudy - 24.1 1011.7 0.2
13/05:00am SE 8 11 - - - - 10 Partly cloudy - 23.9 1011.6 0.2
13/04:30am SSE 10 14 - - - - 10 Partly cloudy - 24.2 1011.5 0.2
13/04:00am SSE 11 17 - - - - 10 Partly cloudy - 24.1 1011.5 0.2
13/03:30am SSE 10 14 - - - - 10 Partly cloudy - 24.1 1011.6 0.2
13/03:00am SE 9 15 - - - - 10 Cloudy - 24.6 1011.8 0.2
13/02:30am SSE 11 15 - - - - 10 Cloudy - 24.6 1012.1 0.2
13/02:00am SE 8 11 - - - - 10 Partly cloudy - 24.5 1012.4 0.2
13/01:30am SE 10 16 - - - - 10 Cloudy - 24.6 1012.6 0.2
13/01:00am SE 11 17 - - - - 10 Partly cloudy - 24.2 1013.0 0.2
13/12:30am SE 11 14 - - - - 10 Partly cloudy - 24.4 1013.1 0.2
13/12:00am ESE 14 18 - - - - 10 Cloudy - 23.8 1013.5 0.2
 
Date/Time
EST
Wind Sea
Height
m
Swell Vis
km
Cloud Weather Temp
°C
Press
MSL
hPa
Rain since
9am
mm
Dir  Spd
kts
Gust
kts
Height
m
Period
s
Dir
12/11:30pm SE 10 14 - - - - 10 Cloudy - 25.0 1013.4 0.2
12/11:00pm SE 11 17 - - - - 10 Partly cloudy - 25.0 1013.4 0.2
12/10:30pm SE 12 19 - - - - 10 Partly cloudy - 25.1 1013.5 0.2
12/10:00pm SE 11 17 - - - - 10 Cloudy - 25.3 1013.6 0.2
12/09:30pm SE 13 19 - - - - 10 Cloudy - 25.5 1013.6 0.2
12/09:00pm ESE 10 16 - - - - 10 Mostly cloudy - 24.8 1013.5 0.2
12/08:30pm SE 13 17 - - - - 10 Cloudy - 25.8 1013.2 0.2
12/08:00pm SE 12 16 - - - - 10 Partly cloudy - 25.7 1012.7 0.2
12/07:30pm SSE 11 15 - - - - 10 Partly cloudy - 24.9 1012.4 0.2
12/07:00pm ESE 14 20 - - - - 10 Cloudy - 25.5 1011.9 0.2
12/06:30pm ESE 13 18 - - - - 10 Partly cloudy - 26.2 1011.7 0.2
12/06:00pm ESE 14 19 - - - - 10 - - 26.5 1011.2 0.2
12/05:30pm ESE 14 19 - - - - 10 - - 27.3 1011.0 0.2
12/05:00pm ESE 15 22 - - - - 10 - - 27.7 1010.7 0.2
12/04:30pm ESE 14 19 - - - - 10 - - 28.2 1010.5 0.2
12/04:00pm ESE 15 20 - - - - 10 - - 28.5 1010.5 0.2
12/03:30pm ESE 14 19 - - - - 10 - - 28.6 1010.6 0.2
12/03:00pm ESE 15 22 - - - - 10 - - 28.9 1010.8 0.2
12/02:30pm ESE 15 21 - - - - 10 - - 28.8 1011.1 0.2
12/02:00pm ESE 16 21 - - - - 10 - - 29.2 1011.3 0.2
12/01:30pm E 15 19 - - - - 10 - - 29.5 1011.8 0.2
12/01:00pm E 16 21 - - - - 10 - - 29.4 1012.2 0.2
12/12:30pm ESE 17 23 - - - - 10 - - 28.9 1012.8 0.2
12/12:00pm ESE 16 22 - - - - 10 - - 28.9 1013.1 0.2
12/11:30am ESE 17 21 - - - - 10 - - 29.1 1013.4 0.2
12/11:00am SE 17 22 - - - - 10 Partly cloudy - 29.0 1013.9 0.2
12/10:30am SE 13 19 - - - - 10 Partly cloudy - 28.1 1014.1 0.0
12/10:00am SE 9 13 - - - - 10 Partly cloudy - 26.9 1014.3 0.0
12/09:30am SE 11 15 - - - - 10 Partly cloudy - 26.7 1014.3 0.0
12/09:00am SE 10 15 - - - - 10 - - 26.0 1014.0 0.4
12/08:30am SSE 11 16 - - - - 10 - - 25.4 1013.7 0.4
12/08:00am SSE 10 14 - - - - 10 Partly cloudy - 25.1 1013.4 0.4
12/07:30am SSE 10 14 - - - - 10 Partly cloudy - 24.2 1013.3 0.4
12/07:00am SSE 9 11 - - - - 10 Partly cloudy - 23.7 1013.0 0.4
12/06:30am SE 8 11 - - - - 10 Partly cloudy - 23.8 1012.9 0.4
12/06:00am SSE 7 11 - - - - 10 Partly cloudy - 24.0 1012.5 0.4
12/05:30am SE 10 13 - - - - 10 Partly cloudy - 23.9 1012.2 0.4
12/05:00am SE 12 16 - - - - 10 Partly cloudy - 23.9 1012.1 0.4
12/04:34am SE 8 11 - - - - 10 Partly cloudy - 23.4 1012.0 0.4
12/04:30am SE 9 14 - - - - 10 Partly cloudy - 23.3 1012.0 0.4
12/04:13am ESE 11 20 - - - - 5 Partly cloudy - 23.6 1012.2 0.2
12/04:00am SE 8 12 - - - - 10 Partly cloudy - 24.7 1011.9 0.0
12/03:30am SSE 9 11 - - - - 10 Partly cloudy - 24.5 1012.0 0.0
12/03:00am SE 9 14 - - - - 9 Cloudy - 24.4 1012.1 0.0
12/02:30am SSE 8 11 - - - - 10 Partly cloudy - 25.1 1012.3 0.0
12/02:00am SE 8 14 - - - - 10 Partly cloudy - 24.8 1012.5 0.0
12/01:30am SSE 8 12 - - - - 10 Partly cloudy - 24.7 1012.7 0.0
12/01:00am SSE 9 13 - - - - 10 Partly cloudy - 24.6 1012.8 0.0
12/12:30am SSE 9 15 - - - - 10 Partly cloudy - 24.8 1013.0 0.0
12/12:00am SE 8 12 - - - - 10 Cloudy - 24.6 1013.0 0.0
 
Date/Time
EST
Wind Sea
Height
m
Swell Vis
km
Cloud Weather Temp
°C
Press
MSL
hPa
Rain since
9am
mm
Dir  Spd
kts
Gust
kts
Height
m
Period
s
Dir
11/11:30pm SE 11 16 - - - - 10 Partly cloudy - 24.8 1013.3 0.0
11/11:00pm SE 12 16 - - - - 10 - - 24.6 1013.5 0.0
11/10:30pm SE 11 16 - - - - 10 - - 24.3 1013.9 0.0
11/10:00pm SSE 11 18 - - - - 10 Partly cloudy - 24.4 1013.9 0.0
11/09:30pm SSE 12 21 - - - - 10 Partly cloudy - 24.3 1013.6 0.0
11/09:00pm SSE 11 16 - - - - 10 Cloudy - 24.3 1013.3 0.0
11/08:30pm SSE 11 16 - - - - 10 Cloudy - 24.2 1013.1 0.0
11/08:00pm SE 14 21 - - - - 10 Partly cloudy - 24.3 1012.9 0.0
11/07:30pm SE 13 20 - - - - 10 Cloudy - 24.4 1012.7 0.0
11/07:00pm SE 13 18 - - - - 10 Partly cloudy - 23.9 1012.4 0.0
11/06:53pm SE 14 19 - - - - 10 Partly cloudy - 24.0 1012.3 0.0
11/06:39pm ESE 16 25 - - - - 5 Partly cloudy - 24.4 1012.1 0.0
11/06:30pm SE 15 20 - - - - 10 Partly cloudy - 25.9 1011.8 0.0
11/06:00pm SE 16 23 - - - - 10 Partly cloudy - 26.3 1011.5 0.0
11/05:30pm SE 16 21 - - - - 10 Partly cloudy - 26.5 1011.1 0.0
11/05:00pm ESE 16 25 - - - - 10 Partly cloudy - 27.2 1010.9 0.0
11/04:30pm SE 17 22 - - - - 10 Partly cloudy - 27.5 1010.7 0.0
11/04:00pm SE 17 25 - - - - 10 - - 28.1 1010.5 0.0
11/03:30pm ESE 17 24 - - - - 10 Partly cloudy - 29.0 1010.4 0.0
11/03:00pm ESE 19 26 - - - - 10 Mostly clear - 28.5 1010.3 0.0
11/02:30pm ESE 20 26 - - - - 10 - - 28.7 1010.6 0.0
11/02:00pm ESE 20 28 - - - - 10 - - 28.5 1010.8 0.0
11/01:30pm ESE 19 28 - - - - 10 Partly cloudy - 28.7 1011.2 0.0
11/01:00pm E 19 28 - - - - 10 Partly cloudy - 29.0 1011.5 0.0
11/12:30pm ESE 17 23 - - - - 10 - - 29.1 1011.9 0.0
11/12:00pm SE 18 24 - - - - 10 - - 29.2 1012.1 0.0
11/11:30am ESE 20 27 - - - - 10 - - 28.6 1012.6 0.0
11/11:00am ESE 20 27 - - - - 10 - - 28.6 1012.9 0.0
11/10:30am SE 19 24 - - - - 10 Partly cloudy - 28.5 1013.5 0.0
11/10:00am SE 15 21 - - - - 10 Partly cloudy - 28.1 1013.8 0.0
11/09:30am SE 15 19 - - - - 10 Cloudy - 27.9 1014.0 0.0
11/09:00am SE 11 19 - - - - 10 Partly cloudy - 27.0 1014.0 0.0
11/08:30am SE 11 16 - - - - 10 Partly cloudy - 26.0 1013.8 0.0
11/08:00am SSE 10 15 - - - - 10 Cloudy - 24.8 1013.6 0.0
11/07:30am SSE 9 13 - - - - 10 Partly cloudy - 24.3 1013.3 0.0
11/07:00am SSE 10 14 - - - - 10 Partly cloudy - 24.2 1012.9 0.0
11/06:30am SE 11 14 - - - - 10 Cloudy - 24.5 1012.5 0.0
11/06:00am SSE 11 16 - - - - 10 Cloudy - 24.5 1012.2 0.0
11/05:30am SSE 11 17 - - - - 10 Partly cloudy - 24.6 1012.2 0.0
11/05:00am SSE 11 16 - - - - 10 Cloudy - 24.8 1012.0 0.0
11/04:30am SE 10 14 - - - - 10 Partly cloudy - 24.7 1012.0 0.0
11/04:00am SE 12 17 - - - - 10 - - 24.8 1012.2 0.0
11/03:30am SE 12 17 - - - - 10 - - 24.8 1012.3 0.0
11/03:00am SE 14 20 - - - - 10 - - 24.9 1012.5 0.0
11/02:30am ESE 17 25 - - - - 10 Partly cloudy - 25.0 1012.5 0.0
11/02:00am ESE 16 23 - - - - 10 Partly cloudy - 25.2 1012.8 0.0
11/01:30am SE 15 20 - - - - 10 Partly cloudy - 25.2 1013.0 0.0
11/01:00am SE 16 25 - - - - 10 - - 25.2 1013.0 0.0
11/12:30am SE 14 20 - - - - 10 - - 25.0 1013.4 0.0
11/12:00am SE 15 22 - - - - 10 Cloudy - 25.2 1013.7 0.0
 
Date/Time
EST
Wind Sea
Height
m
Swell Vis
km
Cloud Weather Temp
°C
Press
MSL
hPa
Rain since
9am
mm
Dir  Spd
kts
Gust
kts
Height
m
Period
s
Dir
10/11:30pm SE 14 19 - - - - 10 Cloudy - 25.4 1014.0 0.0
10/11:00pm SE 13 19 - - - - 10 Partly cloudy - 25.3 1014.0 0.0
10/10:30pm SE 13 17 - - - - 10 Partly cloudy - 25.2 1014.1 0.0
10/10:00pm SE 12 19 - - - - 10 Partly cloudy - 25.0 1014.1 0.0
10/09:30pm SE 15 20 - - - - 10 Partly cloudy - 25.1 1014.1 0.0
10/09:13pm SE 15 29 - - - - 10 Partly cloudy - 25.2 1014.0 0.0
10/09:00pm SE 11 16 - - - - 10 Cloudy - 25.1 1013.9 0.0
10/08:30pm SE 12 22 - - - - 10 - - 25.0 1013.6 0.0
10/08:19pm SE 15 25 - - - - 10 Partly cloudy - 25.1 1013.5 0.0
10/08:00pm SE 12 21 - - - - 10 Partly cloudy - 25.3 1013.3 0.0
10/07:30pm SE 14 22 - - - - 10 Cloudy - 25.4 1012.9 0.0
10/07:00pm SE 16 21 - - - - 10 Cloudy - 25.6 1012.6 0.0

Other formats

Comma delimited format used in spreadsheet applications
http://www.bom.gov.au/fwo/IDQ60701/IDQ60701.94174.axf

JavaScript Object Notation format (JSON) in row-major order
http://www.bom.gov.au/fwo/IDQ60701/IDQ60701.94174.json

Data quality

Most of these data are generated automatically and are frequently updated. Quality checks on data are not normally performed. It is possible for incorrect values to appear. Refer to information at About Latest Weather Observations and please check the disclaimer before using these data.